INTEL12 KELP-KELP
Flight info
| Callsign | INTEL12 |
|---|---|
| Flight time | N/A |
| Altitude | 17500 |
| Route | V |
| Aircraft | BE20/L-VGD/C |
Departure
| Time | 2026-04-23 09:59 |
|---|---|
| Airport | El Paso International Airport (KELP) |
Arrival
| Time | N/A |
|---|---|
| Airport | El Paso International Airport (KELP) |
| Time | Latitude | Longitude | Altitude | Speed | Heading |
|---|---|---|---|---|---|
| 2026-04-23 09:59 | 31.78748 | -106.38262 | 20504 ft | 260 kts | 347° |
| 2026-04-23 09:59 | 31.80576 | -106.37790 | 20686 ft | 286 kts | 24° |
| 2026-04-23 10:00 | 31.81966 | -106.36046 | 20881 ft | 305 kts | 62° |
| 2026-04-23 10:00 | 31.82358 | -106.33565 | 21070 ft | 310 kts | 99° |
| 2026-04-23 10:00 | 31.81624 | -106.31278 | 21220 ft | 302 kts | 130° |
| 2026-04-23 10:00 | 31.80348 | -106.29280 | 21343 ft | 303 kts | 136° |
| 2026-04-23 10:01 | 31.78985 | -106.27376 | 21455 ft | 306 kts | 138° |
| 2026-04-23 10:01 | 31.77562 | -106.25458 | 21117 ft | 327 kts | 138° |
| 2026-04-23 10:01 | 31.75962 | -106.23421 | 20700 ft | 339 kts | 144° |
| 2026-04-23 10:01 | 31.74121 | -106.21721 | 20305 ft | 337 kts | 153° |
| 2026-04-23 10:02 | 31.72169 | -106.20191 | 19890 ft | 338 kts | 154° |
| 2026-04-23 10:02 | 31.70187 | -106.18706 | 19488 ft | 338 kts | 155° |
| 2026-04-23 10:02 | 31.68192 | -106.17237 | 19082 ft | 338 kts | 155° |
| 2026-04-23 10:02 | 31.66196 | -106.15777 | 18676 ft | 338 kts | 155° |
| 2026-04-23 10:03 | 31.64198 | -106.14330 | 18273 ft | 337 kts | 155° |
| 2026-04-23 10:03 | 31.62204 | -106.12895 | 17772 ft | 335 kts | 155° |
| 2026-04-23 10:03 | 31.60220 | -106.11472 | 17334 ft | 334 kts | 155° |
| 2026-04-23 10:03 | 31.58179 | -106.10340 | 16941 ft | 310 kts | 176° |
| 2026-04-23 10:04 | 31.56198 | -106.10592 | 16813 ft | 271 kts | 212° |
| 2026-04-23 10:04 | 31.54933 | -106.12011 | 16793 ft | 245 kts | 246° |
| 2026-04-23 10:04 | 31.54767 | -106.13916 | 16787 ft | 238 kts | 283° |
| 2026-04-23 10:04 | 31.55687 | -106.15495 | 16772 ft | 244 kts | 313° |
| 2026-04-23 10:05 | 31.57054 | -106.16679 | 16720 ft | 244 kts | 320° |
| 2026-04-23 10:05 | 31.58471 | -106.17764 | 16690 ft | 242 kts | 321° |
| 2026-04-23 10:05 | 31.59880 | -106.18811 | 16689 ft | 238 kts | 321° |
| 2026-04-23 10:05 | 31.61279 | -106.19842 | 16688 ft | 235 kts | 321° |
| 2026-04-23 10:06 | 31.62662 | -106.20861 | 16677 ft | 237 kts | 321° |
| 2026-04-23 10:06 | 31.64090 | -106.21928 | 16681 ft | 250 kts | 321° |
| 2026-04-23 10:06 | 31.65583 | -106.23043 | 16806 ft | 259 kts | 321° |
| 2026-04-23 10:06 | 31.67123 | -106.24195 | 16822 ft | 265 kts | 322° |
| 2026-04-23 10:07 | 31.68695 | -106.25374 | 16837 ft | 269 kts | 322° |
| 2026-04-23 10:07 | 31.70277 | -106.26564 | 16852 ft | 272 kts | 322° |
| 2026-04-23 10:07 | 31.71877 | -106.27768 | 16863 ft | 273 kts | 322° |
| 2026-04-23 10:07 | 31.73482 | -106.28977 | 16888 ft | 275 kts | 322° |
| 2026-04-23 10:08 | 31.75094 | -106.30193 | 16894 ft | 275 kts | 322° |
| 2026-04-23 10:08 | 31.76708 | -106.31408 | 16897 ft | 276 kts | 322° |
| 2026-04-23 10:08 | 31.78315 | -106.32634 | 16890 ft | 274 kts | 318° |
| 2026-04-23 10:09 | 31.79552 | -106.36378 | 16882 ft | 255 kts | 256° |
| 2026-04-23 10:09 | 31.78627 | -106.38138 | 16877 ft | 261 kts | 225° |
| 2026-04-23 10:09 | 31.76954 | -106.39032 | 16881 ft | 276 kts | 194° |
| 2026-04-23 10:09 | 31.75012 | -106.38736 | 16877 ft | 294 kts | 164° |
| 2026-04-23 10:10 | 31.73226 | -106.37506 | 16883 ft | 301 kts | 152° |
| 2026-04-23 10:10 | 31.71528 | -106.36048 | 16881 ft | 303 kts | 150° |
| 2026-04-23 10:10 | 31.69855 | -106.34544 | 16869 ft | 303 kts | 149° |
| 2026-04-23 10:10 | 31.68193 | -106.33022 | 16859 ft | 303 kts | 149° |
| 2026-04-23 10:11 | 31.66527 | -106.31487 | 16843 ft | 305 kts | 149° |
| 2026-04-23 10:11 | 31.64849 | -106.29939 | 16827 ft | 308 kts | 149° |
| 2026-04-23 10:11 | 31.63155 | -106.28382 | 16680 ft | 310 kts | 149° |
| 2026-04-23 10:11 | 31.61449 | -106.26818 | 16683 ft | 312 kts | 149° |
| 2026-04-23 10:12 | 31.59734 | -106.25248 | 16682 ft | 313 kts | 149° |
| 2026-04-23 10:12 | 31.58012 | -106.23676 | 16678 ft | 314 kts | 149° |
| 2026-04-23 10:12 | 31.56871 | -106.22634 | 16674 ft | 314 kts | 149° |
| 2026-04-23 10:12 | 31.55152 | -106.21065 | 16688 ft | 312 kts | 149° |
| 2026-04-23 10:13 | 31.53440 | -106.19498 | 16686 ft | 312 kts | 149° |
| 2026-04-23 10:13 | 31.51729 | -106.17930 | 16686 ft | 312 kts | 149° |
| 2026-04-23 10:13 | 31.50019 | -106.16376 | 16686 ft | 309 kts | 152° |
| 2026-04-23 10:13 | 31.48107 | -106.15561 | 16741 ft | 271 kts | 185° |
| 2026-04-23 10:14 | 31.46662 | -106.16055 | 16726 ft | 180 kts | 226° |
| 2026-04-23 10:14 | 31.46262 | -106.17200 | 16710 ft | 154 kts | 277° |
| 2026-04-23 10:14 | 31.47005 | -106.18328 | 16715 ft | 209 kts | 324° |
| 2026-04-23 10:14 | 31.48529 | -106.18913 | 16700 ft | 248 kts | 340° |
| 2026-04-23 10:15 | 31.50290 | -106.19362 | 16701 ft | 268 kts | 342° |
| 2026-04-23 10:15 | 31.52160 | -106.19809 | 16701 ft | 280 kts | 342° |
| 2026-04-23 10:15 | 31.54105 | -106.20263 | 16705 ft | 290 kts | 346° |
| 2026-04-23 10:15 | 31.56155 | -106.19987 | 16726 ft | 312 kts | 20° |
| 2026-04-23 10:16 | 31.57854 | -106.18356 | 16735 ft | 327 kts | 54° |
| 2026-04-23 10:16 | 31.58620 | -106.15846 | 16722 ft | 332 kts | 88° |
| 2026-04-23 10:16 | 31.58187 | -106.13242 | 16714 ft | 324 kts | 123° |
| 2026-04-23 10:16 | 31.56732 | -106.11361 | 16728 ft | 307 kts | 156° |
| 2026-04-23 10:17 | 31.54766 | -106.10734 | 16730 ft | 284 kts | 190° |
| 2026-04-23 10:17 | 31.53015 | -106.11487 | 16728 ft | 263 kts | 224° |
| 2026-04-23 10:17 | 31.52085 | -106.13240 | 16732 ft | 255 kts | 259° |
| 2026-04-23 10:17 | 31.52318 | -106.15277 | 16731 ft | 261 kts | 294° |
| 2026-04-23 10:18 | 31.53638 | -106.16776 | 16727 ft | 278 kts | 329° |
| 2026-04-23 10:18 | 31.55592 | -106.17104 | 16726 ft | 297 kts | 5° |
| 2026-04-23 10:18 | 31.57485 | -106.16044 | 16722 ft | 312 kts | 40° |
| 2026-04-23 10:18 | 31.58636 | -106.13896 | 16726 ft | 317 kts | 75° |
| 2026-04-23 10:19 | 31.58653 | -106.11348 | 16721 ft | 313 kts | 110° |
| 2026-04-23 10:19 | 31.57583 | -106.09230 | 16719 ft | 298 kts | 140° |
| 2026-04-23 10:19 | 31.56076 | -106.07587 | 16705 ft | 294 kts | 147° |
| 2026-04-23 10:19 | 31.54503 | -106.06053 | 16705 ft | 294 kts | 148° |
| 2026-04-23 10:20 | 31.52917 | -106.04547 | 16707 ft | 293 kts | 148° |
| 2026-04-23 10:20 | 31.51327 | -106.03051 | 16706 ft | 293 kts | 148° |
| 2026-04-23 10:20 | 31.49739 | -106.01558 | 16707 ft | 293 kts | 148° |
| 2026-04-23 10:20 | 31.48145 | -106.00070 | 16708 ft | 292 kts | 150° |
| 2026-04-23 10:21 | 31.46356 | -105.99231 | 16732 ft | 269 kts | 186° |
| 2026-04-23 10:21 | 31.44652 | -105.99787 | 16734 ft | 251 kts | 221° |
| 2026-04-23 10:21 | 31.43699 | -106.01410 | 16738 ft | 246 kts | 257° |
| 2026-04-23 10:21 | 31.43869 | -106.03392 | 16731 ft | 253 kts | 289° |
| 2026-04-23 10:22 | 31.44715 | -106.05231 | 16707 ft | 258 kts | 297° |
| 2026-04-23 10:22 | 31.45687 | -106.07005 | 16714 ft | 259 kts | 299° |
| 2026-04-23 10:22 | 31.46687 | -106.08765 | 16712 ft | 260 kts | 299° |
| 2026-04-23 10:22 | 31.47699 | -106.10522 | 16712 ft | 260 kts | 300° |
| 2026-04-23 10:23 | 31.48715 | -106.12280 | 16700 ft | 261 kts | 300° |
| 2026-04-23 10:23 | 31.49733 | -106.14036 | 16698 ft | 261 kts | 300° |
| 2026-04-23 10:23 | 31.50753 | -106.15793 | 16697 ft | 259 kts | 300° |
| 2026-04-23 10:23 | 31.51520 | -106.17589 | 16677 ft | 239 kts | 276° |
| 2026-04-23 10:24 | 31.51344 | -106.19529 | 16686 ft | 246 kts | 256° |
| 2026-04-23 10:24 | 31.50734 | -106.21425 | 16681 ft | 254 kts | 243° |
| 2026-04-23 10:24 | 31.49739 | -106.23162 | 16707 ft | 258 kts | 244° |
| 2026-04-23 10:24 | 31.49460 | -106.25210 | 16730 ft | 263 kts | 279° |
| 2026-04-23 10:25 | 31.50396 | -106.27078 | 16733 ft | 280 kts | 314° |
| 2026-04-23 10:25 | 31.52226 | -106.28006 | 16733 ft | 302 kts | 349° |
| 2026-04-23 10:25 | 31.54333 | -106.27572 | 16730 ft | 320 kts | 22° |
| 2026-04-23 10:25 | 31.56170 | -106.26035 | 16709 ft | 328 kts | 39° |
| 2026-04-23 10:26 | 31.57846 | -106.24214 | 16696 ft | 329 kts | 41° |
| 2026-04-23 10:26 | 31.59480 | -106.22325 | 16696 ft | 330 kts | 42° |
| 2026-04-23 10:26 | 31.61098 | -106.20414 | 16700 ft | 330 kts | 43° |
| 2026-04-23 10:26 | 31.62713 | -106.18494 | 16700 ft | 330 kts | 43° |
| 2026-04-23 10:27 | 31.64327 | -106.16572 | 16785 ft | 330 kts | 43° |
| 2026-04-23 10:27 | 31.65943 | -106.14647 | 16779 ft | 330 kts | 43° |
| 2026-04-23 10:27 | 31.67553 | -106.12727 | 16779 ft | 330 kts | 43° |
| 2026-04-23 10:27 | 31.69167 | -106.10805 | 16767 ft | 330 kts | 43° |
| 2026-04-23 10:28 | 31.70784 | -106.08881 | 16759 ft | 330 kts | 43° |
| 2026-04-23 10:28 | 31.72617 | -106.07349 | 16742 ft | 320 kts | 17° |
| 2026-04-23 10:28 | 31.74743 | -106.07003 | 16744 ft | 303 kts | 347° |
| 2026-04-23 10:28 | 31.76665 | -106.07810 | 16760 ft | 290 kts | 325° |
| 2026-04-23 10:29 | 31.78360 | -106.09073 | 16766 ft | 287 kts | 320° |
| 2026-04-23 10:29 | 31.79997 | -106.10413 | 16774 ft | 287 kts | 319° |
| 2026-04-23 10:29 | 31.81620 | -106.11778 | 16786 ft | 287 kts | 319° |
| 2026-04-23 10:29 | 31.83238 | -106.13150 | 16795 ft | 287 kts | 319° |
| 2026-04-23 10:30 | 31.84850 | -106.14525 | 16815 ft | 287 kts | 319° |
| 2026-04-23 10:30 | 31.86460 | -106.15903 | 16820 ft | 286 kts | 319° |
| 2026-04-23 10:30 | 31.88068 | -106.17284 | 16824 ft | 286 kts | 319° |
| 2026-04-23 10:30 | 31.89678 | -106.18664 | 16829 ft | 286 kts | 319° |
| 2026-04-23 10:31 | 31.91289 | -106.20047 | 16832 ft | 286 kts | 319° |
| 2026-04-23 10:31 | 31.92893 | -106.21424 | 16830 ft | 286 kts | 319° |
| 2026-04-23 10:31 | 31.94517 | -106.22817 | 16483 ft | 296 kts | 319° |
| 2026-04-23 10:31 | 31.96193 | -106.24240 | 15875 ft | 309 kts | 320° |
| 2026-04-23 10:32 | 31.97956 | -106.25673 | 14957 ft | 302 kts | 325° |
| 2026-04-23 10:32 | 31.99974 | -106.26252 | 14009 ft | 305 kts | 359° |
| 2026-04-23 10:32 | 32.01967 | -106.25419 | 12988 ft | 310 kts | 34° |
| 2026-04-23 10:32 | 32.03230 | -106.23458 | 12311 ft | 296 kts | 71° |
| 2026-04-23 10:33 | 32.03372 | -106.21160 | 11703 ft | 273 kts | 109° |
| 2026-04-23 10:33 | 32.02486 | -106.19326 | 11103 ft | 250 kts | 141° |
| 2026-04-23 10:33 | 32.01251 | -106.17948 | 10469 ft | 241 kts | 146° |
| 2026-04-23 10:33 | 31.99999 | -106.16672 | 9959 ft | 232 kts | 147° |
| 2026-04-23 10:34 | 31.98709 | -106.15939 | 9920 ft | 183 kts | 188° |
| 2026-04-23 10:34 | 31.97586 | -106.16207 | 9783 ft | 156 kts | 216° |
| 2026-04-23 10:34 | 31.96689 | -106.16957 | 9123 ft | 165 kts | 229° |
| 2026-04-23 10:34 | 31.95872 | -106.18011 | 8268 ft | 182 kts | 234° |
| 2026-04-23 10:35 | 31.95027 | -106.19181 | 7669 ft | 185 kts | 236° |
| 2026-04-23 10:35 | 31.94229 | -106.20285 | 7435 ft | 169 kts | 237° |
| 2026-04-23 10:35 | 31.93503 | -106.21304 | 7232 ft | 156 kts | 238° |
| 2026-04-23 10:35 | 31.92827 | -106.22243 | 7045 ft | 144 kts | 238° |
| 2026-04-23 10:36 | 31.92207 | -106.23116 | 6880 ft | 134 kts | 239° |
| 2026-04-23 10:36 | 31.91625 | -106.23937 | 6722 ft | 127 kts | 239° |
| 2026-04-23 10:36 | 31.91074 | -106.24710 | 6575 ft | 120 kts | 240° |
| 2026-04-23 10:36 | 31.90544 | -106.25447 | 6435 ft | 117 kts | 240° |
| 2026-04-23 10:37 | 31.90025 | -106.26178 | 6294 ft | 116 kts | 240° |
| 2026-04-23 10:37 | 31.89505 | -106.26910 | 6144 ft | 117 kts | 238° |
| 2026-04-23 10:37 | 31.88983 | -106.27634 | 5998 ft | 114 kts | 240° |
| 2026-04-23 10:37 | 31.88489 | -106.28328 | 5875 ft | 103 kts | 239° |
| 2026-04-23 10:38 | 31.88026 | -106.28971 | 5743 ft | 107 kts | 238° |
| 2026-04-23 10:38 | 31.87537 | -106.29666 | 5594 ft | 112 kts | 237° |
| 2026-04-23 10:38 | 31.87026 | -106.30376 | 5452 ft | 115 kts | 237° |
| 2026-04-23 10:38 | 31.86506 | -106.31112 | 5319 ft | 119 kts | 235° |
| 2026-04-23 10:39 | 31.85968 | -106.31857 | 5195 ft | 122 kts | 237° |
| 2026-04-23 10:39 | 31.85421 | -106.32633 | 5066 ft | 125 kts | 234° |
| 2026-04-23 10:39 | 31.84854 | -106.33415 | 4912 ft | 127 kts | 234° |
| 2026-04-23 10:39 | 31.84286 | -106.34220 | 4727 ft | 129 kts | 234° |
| 2026-04-23 10:40 | 31.83693 | -106.35044 | 4499 ft | 134 kts | 235° |
| 2026-04-23 10:40 | 31.83134 | -106.35846 | 4335 ft | 118 kts | 237° |
| 2026-04-23 10:40 | 31.82626 | -106.36542 | 4114 ft | 104 kts | 234° |
| 2026-04-23 10:40 | 31.82185 | -106.37155 | 3967 ft | 91 kts | 237° |
| 2026-04-23 10:41 | 31.81857 | -106.37678 | 3945 ft | 58 kts | 240° |